createdAt,value
2018-10-05T00:00:31.502Z,90.61
2018-10-05T00:03:01.445Z,90.73
2018-10-05T00:05:31.724Z,90.75
2018-10-05T00:08:01.707Z,90.77
2018-10-05T00:10:31.563Z,91.01
2018-10-05T00:13:01.746Z,90.52
2018-10-05T00:15:31.445Z,90.41
2018-10-05T00:18:01.323Z,90.81
2018-10-05T00:20:31.159Z,91.01
2018-10-05T00:23:01.003Z,90.86
2018-10-05T00:25:30.762Z,91.08
2018-10-05T00:28:00.583Z,90.92
2018-10-05T00:30:30.283Z,90.56
2018-10-05T00:33:00.084Z,90.56
2018-10-05T00:35:29.784Z,90.44
2018-10-05T00:37:59.652Z,90.25
2018-10-05T00:40:29.344Z,90.56
2018-10-05T00:42:59.225Z,90.70
2018-10-05T00:45:29.144Z,90.95
2018-10-05T00:47:59.003Z,90.50
2018-10-05T00:50:28.705Z,90.82
2018-10-05T00:52:58.658Z,90.50
2018-10-05T00:55:28.287Z,90.34
2018-10-05T00:57:58.105Z,90.53
2018-10-05T01:00:28.045Z,90.10
2018-10-05T01:02:57.783Z,90.45
2018-10-05T01:05:27.583Z,90.49
2018-10-05T01:07:57.604Z,90.43
2018-10-05T01:10:27.444Z,90.35
2018-10-05T01:12:57.305Z,90.73
2018-10-05T01:15:27.244Z,90.54
2018-10-05T01:17:57.144Z,90.87
2018-10-05T01:20:26.904Z,90.89
2018-10-05T01:22:57.025Z,90.80
2018-10-05T01:25:26.924Z,90.51
2018-10-05T01:27:57.005Z,90.23
2018-10-05T01:30:26.725Z,90.27
2018-10-05T01:32:56.725Z,90.15
2018-10-05T01:35:26.584Z,90.36
2018-10-05T01:37:56.365Z,90.86
2018-10-05T01:40:26.125Z,90.48
2018-10-05T01:42:55.885Z,91.05
2018-10-05T01:45:25.625Z,90.92
2018-10-05T01:47:55.465Z,91.14
2018-10-05T01:50:25.125Z,91.25
2018-10-05T01:52:54.945Z,91.21
2018-10-05T01:55:24.746Z,91.13
2018-10-05T01:57:54.506Z,91.30
2018-10-05T02:00:24.307Z,90.72
2018-10-05T02:02:54.161Z,91.03
2018-10-05T02:05:23.925Z,90.90
2018-10-05T02:07:53.805Z,91.04
2018-10-05T02:10:23.745Z,90.98
2018-10-05T02:12:53.606Z,91.41
2018-10-05T02:15:23.406Z,90.97
2018-10-05T02:17:53.174Z,90.81
2018-10-05T02:20:22.948Z,90.84
2018-10-05T02:22:53.286Z,90.42
2018-10-05T02:25:23.106Z,90.79
2018-10-05T02:27:52.906Z,90.95
2018-10-05T02:30:22.610Z,90.96
2018-10-05T02:32:52.439Z,90.41
2018-10-05T02:35:22.437Z,90.71
2018-10-05T02:37:52.227Z,90.61
2018-10-05T02:40:21.946Z,90.36
2018-10-05T02:42:51.745Z,90.55
2018-10-05T02:45:21.486Z,90.55
2018-10-05T02:47:51.972Z,90.72
2018-10-05T02:50:21.648Z,90.91
2018-10-05T02:52:53.025Z,90.78
2018-10-05T02:55:22.765Z,90.92
2018-10-05T02:57:53.485Z,91.03
2018-10-05T03:00:33.827Z,90.99
2018-10-05T03:03:06.526Z,90.92
2018-10-05T03:05:36.167Z,90.57
2018-10-05T03:08:05.986Z,90.75
2018-10-05T03:10:35.905Z,90.91
2018-10-05T03:13:05.785Z,90.70
2018-10-05T03:15:35.704Z,90.45
2018-10-05T03:18:05.665Z,91.21
2018-10-05T03:20:35.384Z,91.29
2018-10-05T03:23:05.824Z,91.40
2018-10-05T03:25:35.545Z,91.06
2018-10-05T03:28:05.184Z,90.93
2018-10-05T03:30:35.499Z,90.44
2018-10-05T03:33:06.511Z,90.67
2018-10-05T03:35:37.158Z,91.08
2018-10-05T03:38:07.470Z,91.37
2018-10-05T03:40:37.148Z,91.25
2018-10-05T03:43:07.741Z,91.00
2018-10-05T03:45:37.495Z,91.22
2018-10-05T03:48:08.184Z,91.66
2018-10-05T03:50:37.931Z,91.67
2018-10-05T03:53:08.370Z,91.33
2018-10-05T03:55:38.117Z,91.16
2018-10-05T03:58:08.024Z,91.07
2018-10-05T04:00:37.724Z,90.85
2018-10-05T04:03:07.776Z,91.03
2018-10-05T04:05:37.776Z,91.32
2018-10-05T04:08:07.430Z,91.39
2018-10-05T04:10:37.475Z,92.00
2018-10-05T04:13:07.742Z,91.67
2018-10-05T04:15:37.476Z,91.21
2018-10-05T04:18:07.221Z,90.82
2018-10-05T04:20:37.023Z,90.07
2018-10-05T04:23:06.833Z,90.63
2018-10-05T04:25:37.505Z,90.93
2018-10-05T04:28:07.249Z,90.51
2018-10-05T04:30:37.063Z,91.17
2018-10-05T04:33:06.914Z,91.03
2018-10-05T04:35:36.877Z,91.55
2018-10-05T04:38:06.581Z,91.29
2018-10-05T04:40:36.763Z,91.27
2018-10-05T04:43:06.849Z,90.90
2018-10-05T04:45:37.149Z,90.87
2018-10-05T04:48:07.115Z,90.90
2018-10-05T04:50:37.074Z,90.64
2018-10-05T04:53:07.042Z,90.26
2018-10-05T04:55:37.139Z,90.57
2018-10-05T04:58:06.964Z,90.15
2018-10-05T05:00:36.700Z,90.63
2018-10-05T05:03:07.496Z,90.51
2018-10-05T05:05:38.104Z,90.76
2018-10-05T05:08:07.888Z,91.13
2018-10-05T05:10:37.910Z,91.39
2018-10-05T05:13:07.725Z,91.99
2018-10-05T05:15:38.043Z,91.62
2018-10-05T05:18:07.892Z,91.78
2018-10-05T05:20:38.363Z,92.17
2018-10-05T05:23:08.044Z,91.86
2018-10-05T05:25:37.941Z,91.40
2018-10-05T05:28:07.691Z,91.58
2018-10-05T05:30:38.536Z,91.59
2018-10-05T05:33:08.331Z,91.75
2018-10-05T05:35:38.413Z,91.86
2018-10-05T05:38:08.054Z,91.52
2018-10-05T05:40:38.141Z,91.51
2018-10-05T05:43:08.536Z,92.01
2018-10-05T05:45:38.443Z,91.84
2018-10-05T05:48:09.152Z,91.87
2018-10-05T05:50:39.069Z,92.02
2018-10-05T05:53:08.986Z,92.26
2018-10-05T05:55:38.760Z,92.32
2018-10-05T05:58:08.842Z,92.67
2018-10-05T06:00:38.585Z,92.49
2018-10-05T06:03:08.503Z,93.06
2018-10-05T06:05:38.200Z,93.06
2018-10-05T06:08:08.041Z,92.89
2018-10-05T06:10:38.076Z,92.99
2018-10-05T06:13:07.963Z,93.15
2018-10-05T06:15:37.766Z,92.63
2018-10-05T06:18:07.552Z,93.09
2018-10-05T06:20:37.487Z,92.87
2018-10-05T06:23:07.243Z,93.00
2018-10-05T06:25:37.173Z,92.92
2018-10-05T06:28:07.372Z,93.00
2018-10-05T06:30:37.412Z,93.17
2018-10-05T06:33:07.209Z,93.21
2018-10-05T06:35:37.073Z,93.22
2018-10-05T06:38:06.942Z,93.51
2018-10-05T06:40:36.756Z,93.36
2018-10-05T06:43:07.407Z,93.37
2018-10-05T06:45:37.683Z,93.46
2018-10-05T06:48:07.528Z,93.57
2018-10-05T06:50:37.350Z,93.48
2018-10-05T06:53:07.085Z,93.61
2018-10-05T06:55:36.826Z,93.71
2018-10-05T06:58:06.573Z,93.73
2018-10-05T07:00:37.003Z,93.61
2018-10-05T07:03:06.737Z,93.55
2018-10-05T07:05:36.566Z,93.35
2018-10-05T07:08:06.471Z,93.95
2018-10-05T07:10:36.385Z,93.81
2018-10-05T07:13:06.148Z,93.63
2018-10-05T07:15:36.086Z,93.65
2018-10-05T07:18:05.987Z,93.38
2018-10-05T07:20:35.788Z,93.42
2018-10-05T07:23:05.689Z,94.14
2018-10-05T07:25:35.610Z,93.47
2018-10-05T07:28:05.316Z,94.17
2018-10-05T07:30:35.229Z,94.12
2018-10-05T07:33:05.148Z,93.92
2018-10-05T07:35:35.265Z,94.45
2018-10-05T07:38:05.102Z,93.91
2018-10-05T07:40:35.072Z,93.88
2018-10-05T07:43:04.948Z,94.04
2018-10-05T07:45:34.908Z,93.80
2018-10-05T07:48:04.692Z,93.75
2018-10-05T07:50:34.561Z,94.20
2018-10-05T07:53:05.031Z,93.96
2018-10-05T07:55:34.936Z,93.97
2018-10-05T07:58:04.682Z,92.72
2018-10-05T08:00:34.541Z,90.28
2018-10-05T08:03:04.362Z,85.56
2018-10-05T08:05:34.295Z,85.21
2018-10-05T08:08:04.031Z,85.24
2018-10-05T08:10:34.137Z,84.32
2018-10-05T08:13:03.883Z,84.57
2018-10-05T08:15:33.723Z,81.69
2018-10-05T08:18:03.388Z,84.17
2018-10-05T08:20:33.159Z,80.48
2018-10-05T08:23:02.921Z,79.26
2018-10-05T08:25:32.694Z,79.99
2018-10-05T08:28:02.593Z,75.25
2018-10-05T08:30:32.341Z,78.84
2018-10-05T08:33:02.254Z,80.37
2018-10-05T08:35:32.318Z,77.44
2018-10-05T08:38:02.120Z,76.16
2018-10-05T08:40:31.925Z,73.37
2018-10-05T08:43:02.145Z,74.90
2018-10-05T08:45:32.371Z,73.26
2018-10-05T08:48:02.108Z,73.12
2018-10-05T08:50:32.094Z,71.90
2018-10-05T08:53:02.261Z,71.89
2018-10-05T08:55:32.129Z,68.53
2018-10-05T08:58:01.951Z,70.58
2018-10-05T09:00:31.916Z,63.54
2018-10-05T09:03:01.683Z,64.61
2018-10-05T09:05:31.455Z,66.93
2018-10-05T09:08:01.343Z,64.47
2018-10-05T09:10:31.317Z,68.81
2018-10-05T09:13:01.083Z,65.05
2018-10-05T09:15:31.103Z,60.49
2018-10-05T09:18:00.787Z,64.67
2018-10-05T09:20:30.940Z,62.83
2018-10-05T09:23:00.753Z,60.65
2018-10-05T09:25:30.832Z,61.42
2018-10-05T09:28:00.722Z,61.21
2018-10-05T09:30:31.201Z,57.94
2018-10-05T09:33:00.882Z,57.12
2018-10-05T09:35:30.861Z,53.70
2018-10-05T09:38:00.718Z,55.13
2018-10-05T09:40:31.256Z,54.11
2018-10-05T09:43:00.988Z,54.07
2018-10-05T09:45:30.926Z,50.34
2018-10-05T09:48:00.972Z,48.29
2018-10-05T09:50:30.918Z,48.95
2018-10-05T09:53:00.711Z,45.82
2018-10-05T09:55:31.058Z,46.62
2018-10-05T09:58:01.687Z,47.29
2018-10-05T10:00:36.466Z,46.59
2018-10-05T10:03:11.148Z,46.72
2018-10-05T10:05:40.964Z,45.25
2018-10-05T10:08:10.957Z,45.81
2018-10-05T10:10:40.674Z,46.17
2018-10-05T10:13:10.463Z,43.46
2018-10-05T10:15:40.378Z,45.21
2018-10-05T10:18:10.094Z,44.88
2018-10-05T10:20:39.967Z,47.81
2018-10-05T10:23:09.795Z,47.23
2018-10-05T10:25:40.184Z,46.00
2018-10-05T10:28:10.211Z,46.53
2018-10-05T10:30:40.189Z,47.29
2018-10-05T10:33:09.962Z,46.59
2018-10-05T10:35:39.873Z,45.04
2018-10-05T10:38:09.800Z,45.38
2018-10-05T10:40:39.566Z,45.20
2018-10-05T10:43:09.321Z,44.03
2018-10-05T10:45:39.270Z,44.44
2018-10-05T10:48:08.985Z,44.34
2018-10-05T10:50:38.933Z,44.82
2018-10-05T10:53:08.758Z,43.79
2018-10-05T10:55:38.491Z,42.11
2018-10-05T10:58:08.492Z,44.17
2018-10-05T11:00:38.873Z,44.17
2018-10-05T11:03:08.711Z,41.16
2018-10-05T11:05:38.438Z,41.77
2018-10-05T11:08:08.163Z,43.47
2018-10-05T11:10:38.025Z,44.49
2018-10-05T11:13:07.719Z,40.98
2018-10-05T11:15:37.539Z,42.48
2018-10-05T11:18:07.227Z,41.13
2018-10-05T11:20:36.937Z,41.33
2018-10-05T11:23:06.919Z,41.90
2018-10-05T11:25:36.877Z,41.01
2018-10-05T11:28:06.654Z,40.58
2018-10-05T11:30:36.696Z,41.87
2018-10-05T11:33:06.484Z,42.30
2018-10-05T11:35:36.413Z,39.44
2018-10-05T11:38:06.162Z,41.58
2018-10-05T11:40:36.076Z,42.28
2018-10-05T11:43:05.951Z,41.42
2018-10-05T11:45:36.669Z,39.52
2018-10-05T11:48:06.335Z,40.22
2018-10-05T11:50:37.758Z,39.25
2018-10-05T11:53:07.542Z,40.21
2018-10-05T11:55:38.995Z,41.28
2018-10-05T11:58:08.895Z,39.73
2018-10-05T12:00:40.293Z,37.93
2018-10-05T12:03:10.101Z,39.77
2018-10-05T12:05:41.774Z,37.98
2018-10-05T12:08:11.593Z,40.70
2018-10-05T12:10:43.113Z,40.90
2018-10-05T12:13:12.892Z,42.47
2018-10-05T12:15:42.746Z,42.66
2018-10-05T12:18:12.556Z,43.68
2018-10-05T12:20:42.837Z,43.56
2018-10-05T12:23:12.665Z,43.17
2018-10-05T12:25:42.614Z,44.88
2018-10-05T12:28:12.808Z,44.58
2018-10-05T12:30:42.419Z,44.58
2018-10-05T12:33:12.329Z,45.98
2018-10-05T12:35:42.628Z,45.47
2018-10-05T12:38:12.476Z,45.60
2018-10-05T12:40:42.210Z,44.93
2018-10-05T12:43:11.909Z,45.60
2018-10-05T12:45:41.619Z,46.22
2018-10-05T12:48:11.388Z,44.30
2018-10-05T12:50:40.998Z,43.29
2018-10-05T12:53:11.107Z,46.18
2018-10-05T12:55:40.871Z,43.96
2018-10-05T12:58:10.870Z,43.44
2018-10-05T13:00:44.045Z,43.84
2018-10-05T13:03:13.905Z,42.87
2018-10-05T13:05:43.634Z,45.37
2018-10-05T13:08:13.604Z,45.16
2018-10-05T13:10:43.405Z,45.47
2018-10-05T13:13:13.226Z,44.42
2018-10-05T13:15:42.818Z,44.40
2018-10-05T13:18:12.914Z,44.71
2018-10-05T13:20:42.637Z,44.84
2018-10-05T13:23:12.967Z,42.57
2018-10-05T13:25:42.786Z,45.42
2018-10-05T13:28:12.687Z,43.76
2018-10-05T13:30:42.452Z,44.41
2018-10-05T13:33:12.346Z,44.07
2018-10-05T13:35:42.155Z,43.45
2018-10-05T13:38:12.075Z,44.76
2018-10-05T13:40:42.105Z,43.96
2018-10-05T13:43:12.034Z,45.41
2018-10-05T13:45:41.731Z,45.02
2018-10-05T13:48:11.591Z,46.56
2018-10-05T13:50:41.494Z,47.02
2018-10-05T13:53:11.346Z,46.66
2018-10-05T13:55:41.357Z,46.88
2018-10-05T13:58:11.549Z,47.08
2018-10-05T14:00:41.322Z,46.52
2018-10-05T14:03:11.389Z,45.83
2018-10-05T14:05:41.522Z,45.96
2018-10-05T14:08:11.473Z,46.97
2018-10-05T14:10:41.456Z,46.43
2018-10-05T14:13:11.336Z,46.85
2018-10-05T14:15:40.957Z,47.79
2018-10-05T14:18:10.822Z,45.75
2018-10-05T14:20:40.584Z,45.96
2018-10-05T14:23:10.588Z,45.94
2018-10-05T14:25:40.460Z,44.89
2018-10-05T14:28:10.330Z,45.18
2018-10-05T14:30:40.042Z,45.40
2018-10-05T14:33:10.120Z,44.20
2018-10-05T14:35:39.816Z,44.85
2018-10-05T14:38:09.809Z,44.28
2018-10-05T14:40:39.679Z,44.48
2018-10-05T14:43:09.504Z,43.78
2018-10-05T14:45:39.417Z,43.88
2018-10-05T14:48:09.859Z,43.51
2018-10-05T14:50:39.562Z,44.69
2018-10-05T14:53:09.370Z,43.88
2018-10-05T14:55:39.064Z,42.94
2018-10-05T14:58:09.770Z,42.89
2018-10-05T15:00:42.577Z,42.32
2018-10-05T15:03:12.522Z,42.38
2018-10-05T15:05:42.379Z,41.87
2018-10-05T15:08:12.182Z,43.28
2018-10-05T15:10:41.810Z,42.88
2018-10-05T15:13:11.649Z,41.89
2018-10-05T15:15:41.380Z,44.97
2018-10-05T15:18:11.150Z,45.57
2018-10-05T15:20:40.914Z,46.85
2018-10-05T15:23:10.757Z,48.38
2018-10-05T15:25:40.466Z,49.28
2018-10-05T15:28:10.204Z,50.06
2018-10-05T15:30:40.020Z,51.54
2018-10-05T15:33:09.858Z,52.64
2018-10-05T15:35:39.677Z,52.06
2018-10-05T15:38:09.564Z,54.33
2018-10-05T15:40:39.272Z,55.46
2018-10-05T15:43:09.212Z,56.89
2018-10-05T15:45:38.951Z,58.35
2018-10-05T15:48:09.358Z,60.42
2018-10-05T15:50:39.123Z,61.66
2018-10-05T15:53:08.912Z,63.00
2018-10-05T15:55:38.589Z,64.06
2018-10-05T15:58:08.369Z,65.72
2018-10-05T16:00:38.158Z,66.62
2018-10-05T16:03:08.081Z,66.70
2018-10-05T16:05:37.915Z,68.43
2018-10-05T16:08:07.851Z,69.08
2018-10-05T16:10:37.799Z,70.19
2018-10-05T16:13:08.709Z,72.04
2018-10-05T16:15:38.510Z,72.30
2018-10-05T16:18:08.549Z,72.39
2018-10-05T16:20:38.375Z,72.74
2018-10-05T16:23:09.092Z,74.12
2018-10-05T16:25:38.938Z,75.27
2018-10-05T16:28:08.865Z,75.82
2018-10-05T16:30:38.546Z,76.69
2018-10-05T16:33:08.361Z,77.39
2018-10-05T16:35:38.197Z,77.95
2018-10-05T16:38:08.250Z,78.20
2018-10-05T16:40:38.001Z,79.46
2018-10-05T16:43:07.878Z,80.59
2018-10-05T16:45:37.735Z,80.95
2018-10-05T16:48:07.657Z,81.50
2018-10-05T16:50:37.365Z,82.00
2018-10-05T16:53:07.336Z,81.25
2018-10-05T16:55:38.163Z,81.89
2018-10-05T16:58:08.177Z,82.13
2018-10-05T17:00:42.783Z,82.98
2018-10-05T17:03:12.622Z,83.21
2018-10-05T17:05:42.446Z,83.91
2018-10-05T17:08:12.542Z,84.79
2018-10-05T17:10:43.001Z,84.74
2018-10-05T17:13:12.698Z,83.81
2018-10-05T17:15:43.162Z,84.07
2018-10-05T17:18:13.016Z,84.05
2018-10-05T17:20:42.641Z,84.73
2018-10-05T17:23:12.582Z,85.43
2018-10-05T17:25:42.381Z,85.40
2018-10-05T17:28:12.344Z,85.93
2018-10-05T17:30:42.156Z,85.41
2018-10-05T17:33:12.111Z,85.57
2018-10-05T17:35:43.490Z,84.80
2018-10-05T17:38:14.035Z,85.29
2018-10-05T17:43:38.935Z,85.97
2018-10-05T17:46:08.649Z,86.63
2018-10-05T17:48:39.346Z,86.10
2018-10-05T17:51:11.058Z,86.56
2018-10-05T17:53:44.056Z,86.52
2018-10-05T17:56:28.719Z,87.24
2018-10-05T17:58:58.825Z,86.69
2018-10-05T18:01:28.581Z,86.42
2018-10-05T18:03:58.513Z,86.88
2018-10-05T18:06:28.293Z,87.47
2018-10-05T18:08:58.287Z,87.40
2018-10-05T18:11:27.966Z,88.04
2018-10-05T18:13:58.026Z,88.57
2018-10-05T18:16:27.766Z,87.96
2018-10-05T18:18:58.037Z,87.72
2018-10-05T18:21:27.768Z,87.79
2018-10-05T18:23:58.287Z,86.74
2018-10-05T18:26:28.216Z,87.06
2018-10-05T18:28:58.272Z,86.89
2018-10-05T18:31:29.063Z,87.27
2018-10-05T18:34:01.354Z,87.69
2018-10-05T18:36:32.084Z,87.32
2018-10-05T18:39:02.363Z,87.15
2018-10-05T18:41:34.187Z,87.56
2018-10-05T18:44:06.102Z,88.19
2018-10-05T18:46:37.507Z,88.29
2018-10-05T18:49:07.363Z,88.54
2018-10-05T18:51:40.036Z,88.46
2018-10-05T18:54:09.824Z,88.15
2018-10-05T18:56:50.080Z,88.37
2018-10-05T18:59:20.174Z,88.45
2018-10-05T19:01:50.179Z,88.30
2018-10-05T19:04:22.144Z,88.12
2018-10-05T19:06:52.103Z,88.50
2018-10-05T19:09:21.977Z,88.84
2018-10-05T19:11:51.766Z,89.00
2018-10-05T19:14:21.625Z,88.97
2018-10-05T19:16:51.404Z,89.27
2018-10-05T19:19:21.376Z,89.13
2018-10-05T19:21:51.219Z,88.95
2018-10-05T19:24:21.068Z,88.76
2018-10-05T19:26:50.902Z,88.81
2018-10-05T19:29:20.896Z,89.34
2018-10-05T19:31:50.696Z,89.32
2018-10-05T19:34:20.737Z,89.36
2018-10-05T19:36:50.657Z,89.21
2018-10-05T19:39:21.064Z,89.15
2018-10-05T19:41:51.011Z,89.26
2018-10-05T19:44:21.744Z,88.68
2018-10-05T19:46:51.427Z,88.90
2018-10-05T19:49:21.424Z,88.52
2018-10-05T19:51:51.145Z,88.75
2018-10-05T19:54:21.065Z,89.50
2018-10-05T19:56:50.866Z,89.55
2018-10-05T19:59:20.687Z,89.49
2018-10-05T20:01:50.417Z,89.54
2018-10-05T20:04:20.357Z,89.11
2018-10-05T20:06:50.146Z,88.62
2018-10-05T20:09:19.995Z,88.94
2018-10-05T20:11:49.735Z,89.36
2018-10-05T20:14:19.495Z,89.48
2018-10-05T20:16:49.756Z,89.63
2018-10-05T20:19:19.915Z,89.24
2018-10-05T20:21:49.655Z,89.09
2018-10-05T20:24:19.918Z,89.41
2018-10-05T20:26:49.718Z,89.83
2018-10-05T20:29:19.678Z,90.31
2018-10-05T20:31:49.378Z,90.47
2018-10-05T20:34:19.279Z,90.50
2018-10-05T20:36:49.401Z,90.37
2018-10-05T20:39:18.937Z,90.44
2018-10-05T20:41:48.743Z,90.40
2018-10-05T20:44:18.552Z,89.77
2018-10-05T20:46:48.256Z,89.79
2018-10-05T20:49:18.060Z,89.35
2018-10-05T20:51:47.828Z,89.58
2018-10-05T20:54:17.625Z,89.49
2018-10-05T20:56:47.338Z,89.94
2018-10-05T20:59:17.665Z,90.13
2018-10-05T21:01:47.397Z,90.48
2018-10-05T21:04:17.214Z,90.51
2018-10-05T21:06:47.069Z,90.04
2018-10-05T21:09:17.335Z,90.19
2018-10-05T21:11:47.064Z,89.59
2018-10-05T21:14:16.920Z,90.00
2018-10-05T21:16:46.677Z,89.96
2018-10-05T21:19:16.460Z,90.13
2018-10-05T21:21:46.226Z,89.71
2018-10-05T21:24:16.096Z,89.87
2018-10-05T21:26:45.955Z,89.86
2018-10-05T21:29:15.859Z,90.58
2018-10-05T21:31:45.618Z,90.77
2018-10-05T21:34:15.598Z,91.44
2018-10-05T21:36:45.337Z,91.35
2018-10-05T21:39:15.177Z,91.44
2018-10-05T21:41:44.838Z,91.52
2018-10-05T21:44:14.616Z,91.21
2018-10-05T21:46:44.376Z,91.29
2018-10-05T21:49:14.116Z,91.29
2018-10-05T21:51:43.876Z,91.25
2018-10-05T21:54:13.638Z,91.12
2018-10-05T21:56:43.437Z,90.82
2018-10-05T21:59:13.638Z,90.95
2018-10-05T22:01:43.417Z,91.00
2018-10-05T22:04:13.358Z,91.21
2018-10-05T22:06:43.095Z,91.04
2018-10-05T22:09:13.576Z,90.88
2018-10-05T22:11:43.243Z,90.73
2018-10-05T22:14:14.591Z,91.17
2018-10-05T22:16:44.294Z,91.31
2018-10-05T22:19:14.523Z,91.16
2018-10-05T22:21:44.196Z,91.03
2018-10-05T22:24:14.037Z,90.97
2018-10-05T22:26:43.755Z,90.97
2018-10-05T22:31:55.115Z,91.20
2018-10-05T22:34:24.935Z,91.23
2018-10-05T22:36:54.635Z,91.35
2018-10-05T22:39:24.374Z,91.18
2018-10-05T22:41:54.136Z,91.35
2018-10-05T22:44:24.060Z,91.71
2018-10-05T22:46:53.954Z,91.59
2018-10-05T22:49:23.814Z,92.13
2018-10-05T22:51:53.474Z,92.16
2018-10-05T22:54:23.295Z,92.29
2018-10-05T22:56:53.334Z,92.19
2018-10-05T22:59:23.094Z,92.77
2018-10-05T23:01:52.835Z,92.49
2018-10-05T23:04:23.274Z,92.80
2018-10-05T23:06:53.016Z,92.58
2018-10-05T23:09:22.734Z,92.80
2018-10-05T23:11:52.515Z,93.13
2018-10-05T23:14:22.294Z,92.74
2018-10-05T23:16:52.114Z,93.33
2018-10-05T23:19:21.934Z,92.96
2018-10-05T23:21:51.656Z,93.15
2018-10-05T23:24:21.514Z,92.99
2018-10-05T23:26:51.574Z,92.95
2018-10-05T23:29:21.334Z,92.92
2018-10-05T23:31:51.034Z,93.50
2018-10-05T23:34:20.754Z,93.28
2018-10-05T23:36:50.454Z,93.22
2018-10-05T23:39:20.295Z,93.55
2018-10-05T23:41:49.894Z,93.21
2018-10-05T23:44:19.604Z,93.21
2018-10-05T23:46:49.317Z,93.23
2018-10-05T23:49:19.116Z,93.04
2018-10-05T23:51:48.778Z,93.14
2018-10-05T23:54:19.436Z,92.72
2018-10-05T23:56:49.196Z,92.19
2018-10-05T23:59:20.555Z,92.25
